Historyczne dane pomiarowe

Dodano dane terminowe – wersja testowa.

Dane z okresu 1951-2019

Wersja bazy: 1.34 [2019-03-16, lista zmian], aktualizacja planowana na 2019-04-15

Dane meteo z obszaru Polski uzyskane na podstawie danych udostępnionych przez Instytut Meteorologii i Gospodarki Wodnej – Państwowy Instytut Badawczy.

 

Wybierz Datę:    

       

TemperaturaWilgotnośćWiatrCiśnienieOpadyŚniegCzas trwania zjawisk
 Stacja t tx tn tng RH VA  wxwx mslp ppp RRR   cm mm wxwxwxwxwxwxwx
1999-08-14 12.3 18.4 6.2- 98.3- 3.3 1.0---- 0.0------------
1999-08-13 14.4 18.4 10.5- 83.0- 3.3 3.7---- 0.0------------
1999-08-12 15.0 19.1 12.7- 84.0- 6.0 2.7---- 9.5------------
1999-08-11 18.0 24.9 12.7- 97.3- 3.3 2.3---- 0.0------------
1999-08-10 21.5 28.2 14.5- 98.5- 4.7 0.7---- 0.0------------
1999-08-09 21.2 28.0 13.6- 88.8- 3.3 2.0---- 0.0------------
1999-08-08 19.0 23.1 14.2- 94.3- 4.3 4.0---- 0.0------------
1999-08-07 19.3 24.9 14.6- 89.3- 5.3 2.3---- 0.0------------
1999-08-06 17.3 22.4 12.1- 93.3- 6.0 0.7---- 0.0------------
1999-08-05 15.5 23.9 7.7- 91.5- 0.7 0.0---- 0.0------------
1999-08-04 16.2 21.0 13.7- 92.5- 1.0 1.3---- 0.0------------
1999-08-03 14.4 18.0 11.8- 92.3- 6.0 2.3---- 6.0------------
1999-08-02 13.5 16.8 11.3- 99.3- 5.3 4.7---- 4.0------------
1999-08-01 17.1 24.0 11.7- 82.3- 5.3 4.0---- 0.0------------
1999-07-31 15.6 21.4 6.7- 86.3- 2.3 1.3---- 0.0------------
1999-07-30 15.1 21.9 6.6- 86.5- 2.0 1.7---- 0.0------------
1999-07-29 15.4 20.9 11.7- 84.3- 2.7 3.0---- 0.0------------
1999-07-28 16.6 21.4 14.2- 96.3- 4.7 4.3---- 0.0------------
1999-07-27 18.3 23.4 15.1- 95.0- 6.0 3.0---- 0.0------------
1999-07-26 21.7 31.9 12.7- 88.5- 1.0 2.3---- 0.0------------
1999-07-25 15.9 21.9 9.9- 93.3- 1.3 3.0---- 0.0------------
1999-07-24 14.7 19.4 11.3- 94.0- 3.3 2.3---- 20.0------------
1999-07-23 12.2 18.9 6.7- 95.0- 7.7 3.0---- 30.0------------
1999-07-22 19.2 26.0 12.0- 81.8- 4.7 1.7---- 20.0------------
1999-07-21 18.5 26.1 9.6- 79.3- 0.7 1.0---- 0.0------------
1999-07-20 17.1 24.9 6.7- 78.5- 1.3 0.0---- 0.0------------
1999-07-19 15.1 22.4 6.2- 82.8- 2.7 1.7---- 0.0------------
1999-07-18 14.5 20.9 6.2- 90.5- 2.7 2.3---- 0.0------------
1999-07-17 15.3 23.7 5.7- 93.5- 2.0 3.0---- 0.0------------
1999-07-16 15.4 23.0 7.7- 94.5- 2.0 1.0---- 0.0------------
1999-07-15 15.4 19.9 12.7- 96.8- 5.0 0.3---- 10.5------------
1999-07-14 17.1 21.6 15.1- 97.3- 6.3 5.0---- 13.5------------
1999-07-13 18.3 23.9 12.2- 92.8- 5.0 3.7---- 0.0------------
1999-07-12 20.0 25.5 12.7- 87.5- 6.0 0.0---- 10.0------------
1999-07-11 20.4 24.4 17.4- 87.0- 0.7 0.7---- 0.5------------
1999-07-10 17.8 23.4 12.7- 89.3- 6.7 2.7---- 3.0------------
1999-07-09 18.6 24.9 9.8- 93.8- 4.0 3.7---- 5.0------------
1999-07-08 18.9 24.9 9.3- 91.5- 3.0 0.3---- 4.5------------
1999-07-07 22.5 32.9 10.3- 85.5- 4.0 3.3---- 16.5------------
1999-07-06 21.0 30.9 10.0- 98.5- 0.7 5.0---- 0.0------------
1999-07-05 20.4 29.0 9.8- 90.0- 0.0 4.0---- 0.0------------
1999-07-04 17.0 22.2 9.8- 89.0- 1.3 2.3---- 0.0------------
1999-07-03 19.0 25.0 10.8- 86.8- 4.3 2.3---- 0.0------------
1999-07-02 17.2 24.1 10.1- 91.5- 6.3 1.3---- 0.0------------
1999-07-01 17.3 23.3 8.0- 73.0- 2.3 1.7---- 0.0------------
1999-06-30 15.9 23.9 9.3- 87.8- 1.0 2.0---- 0.0------------
1999-06-29 17.4 23.4 11.2- 89.3- 4.7 3.3---- 0.0------------
1999-06-28 17.6 25.2 8.8- 80.3- 2.0 4.0---- 0.0------------
1999-06-27 16.4 24.2 5.2- 76.5- 0.0 3.0---- 0.0------------
1999-06-26 12.0 21.7 2.8- 86.5- 1.0 1.7---- 0.0------------
1999-06-25 11.0 17.4 7.9- 92.3- 3.0 2.7---- 0.0------------
1999-06-24 8.1 9.7 7.2- 98.0- 8.0 7.0---- 14.2------------
1999-06-23 8.4 10.0 6.4- 98.3- 8.0 9.3---- 10.5------------
1999-06-22 11.4 19.3 8.2- 93.5- 7.7 7.3---- 13.2------------
1999-06-21 16.4 22.8 11.3- 96.0- 5.7 4.0---- 4.5------------
1999-06-20 17.8 22.0 13.7- 91.5- 6.0 2.3---- 0.0------------
1999-06-19 16.0 21.3 12.1- 95.3- 7.0 5.3---- 0.0------------
1999-06-18 16.6 26.3 11.6- 95.3- 6.3 3.7---- 0.0------------
1999-06-17 16.8 23.5 14.0- 93.8- 7.7 3.0---- 0.8------------
1999-06-16 17.4 20.3 15.6- 97.8- 6.7 4.3---- 4.0------------
564.6 ms

 

Źródłem pochodzenia danych jest Instytut Meteorologii i Gospodarki Wodnej – Państwowy Instytut Badawczy. Dane Instytutu Meteorologii i Gospodarki Wodnej – Państwowego Instytutu Badawczego zostały przetworzone.

Dane źródłowe można odnaleźć na stronie https://dane.imgw.pl